sensor_id;sensor_type;location;lat;lon;timestamp;P1;durP1;ratioP1;P2;durP2;ratioP2
4519;SDS011;2272;49.226;8.108;2023-06-01T00:58:25;12.87;;;2.80;;
4519;SDS011;2272;49.226;8.108;2023-06-01T01:00:54;17.70;;;2.63;;
4519;SDS011;2272;49.226;8.108;2023-06-01T01:03:26;4.17;;;2.70;;
4519;SDS011;2272;49.226;8.108;2023-06-01T01:05:59;5.13;;;2.40;;
4519;SDS011;2272;49.226;8.108;2023-06-01T01:08:37;6.77;;;2.77;;
4519;SDS011;2272;49.226;8.108;2023-06-01T01:11:10;3.73;;;2.47;;
4519;SDS011;2272;49.226;8.108;2023-06-01T01:13:47;3.73;;;2.60;;
4519;SDS011;2272;49.226;8.108;2023-06-01T01:19:31;2.93;;;2.70;;
4519;SDS011;2272;49.226;8.108;2023-06-01T01:22:40;5.60;;;2.90;;
4519;SDS011;2272;49.226;8.108;2023-06-01T01:25:52;3.53;;;2.80;;
4519;SDS011;2272;49.226;8.108;2023-06-01T01:28:42;3.87;;;2.73;;
4519;SDS011;2272;49.226;8.108;2023-06-01T01:31:13;4.50;;;3.17;;
4519;SDS011;2272;49.226;8.108;2023-06-01T01:33:43;7.93;;;3.10;;
4519;SDS011;2272;49.226;8.108;2023-06-01T01:36:18;16.80;;;2.70;;
4519;SDS011;2272;49.226;8.108;2023-06-01T01:38:46;6.53;;;2.40;;
4519;SDS011;2272;49.226;8.108;2023-06-01T01:41:13;2.80;;;2.60;;
4519;SDS011;2272;49.226;8.108;2023-06-01T01:43:42;2.33;;;2.10;;
4519;SDS011;2272;49.226;8.108;2023-06-01T01:46:12;4.20;;;2.17;;
4519;SDS011;2272;49.226;8.108;2023-06-01T01:48:52;4.57;;;3.30;;
4519;SDS011;2272;49.226;8.108;2023-06-01T01:51:25;3.40;;;2.23;;
4519;SDS011;2272;49.226;8.108;2023-06-01T01:53:56;3.23;;;2.30;;
4519;SDS011;2272;49.226;8.108;2023-06-01T01:56:24;3.97;;;2.73;;
4519;SDS011;2272;49.226;8.108;2023-06-01T01:58:54;2.07;;;1.73;;
4519;SDS011;2272;49.226;8.108;2023-06-01T02:01:22;2.53;;;2.10;;
4519;SDS011;2272;49.226;8.108;2023-06-01T02:03:57;1.90;;;1.80;;
4519;SDS011;2272;49.226;8.108;2023-06-01T02:06:25;6.10;;;2.67;;
4519;SDS011;2272;49.226;8.108;2023-06-01T02:08:52;3.23;;;2.20;;
4519;SDS011;2272;49.226;8.108;2023-06-01T02:11:19;7.10;;;3.20;;
4519;SDS011;2272;49.226;8.108;2023-06-01T02:13:46;4.00;;;2.17;;
4519;SDS011;2272;49.226;8.108;2023-06-01T02:16:15;4.23;;;2.90;;
4519;SDS011;2272;49.226;8.108;2023-06-01T02:18:42;4.60;;;2.70;;
4519;SDS011;2272;49.226;8.108;2023-06-01T02:21:10;2.87;;;2.67;;
4519;SDS011;2272;49.226;8.108;2023-06-01T02:23:38;3.63;;;2.63;;
4519;SDS011;2272;49.226;8.108;2023-06-01T02:26:05;2.40;;;2.20;;
4519;SDS011;2272;49.226;8.108;2023-06-01T02:28:32;2.83;;;2.33;;
4519;SDS011;2272;49.226;8.108;2023-06-01T02:31:00;4.07;;;2.10;;
4519;SDS011;2272;49.226;8.108;2023-06-01T02:33:28;3.17;;;2.37;;
4519;SDS011;2272;49.226;8.108;2023-06-01T02:35:55;2.60;;;2.40;;
4519;SDS011;2272;49.226;8.108;2023-06-01T02:38:23;3.87;;;2.80;;
4519;SDS011;2272;49.226;8.108;2023-06-01T02:41:07;7.03;;;3.03;;
4519;SDS011;2272;49.226;8.108;2023-06-01T02:43:34;4.00;;;2.73;;
4519;SDS011;2272;49.226;8.108;2023-06-01T02:46:02;3.00;;;2.40;;
4519;SDS011;2272;49.226;8.108;2023-06-01T02:48:36;2.40;;;2.10;;
4519;SDS011;2272;49.226;8.108;2023-06-01T09:12:53;13.60;;;3.23;;
4519;SDS011;2272;49.226;8.108;2023-06-01T09:18:33;6.00;;;3.20;;
4519;SDS011;2272;49.226;8.108;2023-06-01T09:21:21;14.53;;;3.23;;
4519;SDS011;2272;49.226;8.108;2023-06-01T09:27:03;2.40;;;2.20;;
4519;SDS011;2272;49.226;8.108;2023-06-01T09:29:36;7.57;;;3.10;;
4519;SDS011;2272;49.226;8.108;2023-06-01T09:32:10;9.03;;;2.83;;
4519;SDS011;2272;49.226;8.108;2023-06-01T09:34:50;18.43;;;3.20;;
4519;SDS011;2272;49.226;8.108;2023-06-01T09:37:41;7.20;;;2.70;;
4519;SDS011;2272;49.226;8.108;2023-06-01T09:44:09;4.10;;;3.00;;
4519;SDS011;2272;49.226;8.108;2023-06-01T09:46:54;5.43;;;2.60;;
4519;SDS011;2272;49.226;8.108;2023-06-01T09:49:55;11.37;;;3.20;;
4519;SDS011;2272;49.226;8.108;2023-06-01T10:06:11;8.57;;;3.20;;
4519;SDS011;2272;49.226;8.108;2023-06-01T10:08:38;3.93;;;2.57;;
4519;SDS011;2272;49.226;8.108;2023-06-01T10:11:06;4.80;;;2.50;;
4519;SDS011;2272;49.226;8.108;2023-06-01T10:13:40;4.47;;;2.90;;
4519;SDS011;2272;49.226;8.108;2023-06-01T10:16:07;8.27;;;3.87;;
4519;SDS011;2272;49.226;8.108;2023-06-01T10:18:41;3.13;;;2.60;;
4519;SDS011;2272;49.226;8.108;2023-06-01T10:21:10;4.30;;;2.63;;
4519;SDS011;2272;49.226;8.108;2023-06-01T15:45:29;21.80;;;2.97;;
4519;SDS011;2272;49.226;8.108;2023-06-01T15:48:01;17.23;;;2.27;;
4519;SDS011;2272;49.226;8.108;2023-06-01T15:50:42;7.00;;;2.50;;
4519;SDS011;2272;49.226;8.108;2023-06-01T16:12:20;3.70;;;2.27;;
4519;SDS011;2272;49.226;8.108;2023-06-01T16:14:47;2.87;;;2.50;;
4519;SDS011;2272;49.226;8.108;2023-06-01T16:17:14;5.27;;;2.57;;
4519;SDS011;2272;49.226;8.108;2023-06-01T16:20:02;3.17;;;1.90;;
4519;SDS011;2272;49.226;8.108;2023-06-01T16:22:39;2.30;;;2.10;;
4519;SDS011;2272;49.226;8.108;2023-06-01T16:25:07;4.43;;;2.33;;
4519;SDS011;2272;49.226;8.108;2023-06-01T16:27:38;25.97;;;2.77;;
4519;SDS011;2272;49.226;8.108;2023-06-01T16:30:11;6.00;;;2.10;;
4519;SDS011;2272;49.226;8.108;2023-06-01T16:32:53;4.37;;;2.10;;
4519;SDS011;2272;49.226;8.108;2023-06-01T16:35:35;9.23;;;2.20;;
4519;SDS011;2272;49.226;8.108;2023-06-01T16:38:20;2.70;;;2.10;;
4519;SDS011;2272;49.226;8.108;2023-06-01T16:47:31;4.17;;;2.40;;
4519;SDS011;2272;49.226;8.108;2023-06-01T21:06:37;11.30;;;6.47;;
4519;SDS011;2272;49.226;8.108;2023-06-01T21:09:13;8.00;;;6.60;;
4519;SDS011;2272;49.226;8.108;2023-06-01T21:11:47;22.70;;;7.27;;
4519;SDS011;2272;49.226;8.108;2023-06-01T21:14:23;15.63;;;6.80;;
4519;SDS011;2272;49.226;8.108;2023-06-01T21:16:50;28.53;;;10.17;;
4519;SDS011;2272;49.226;8.108;2023-06-01T21:19:19;11.83;;;7.30;;
4519;SDS011;2272;49.226;8.108;2023-06-01T21:22:02;24.70;;;8.27;;
4519;SDS011;2272;49.226;8.108;2023-06-01T21:24:29;9.90;;;7.53;;
4519;SDS011;2272;49.226;8.108;2023-06-01T21:26:56;22.13;;;7.50;;
4519;SDS011;2272;49.226;8.108;2023-06-01T21:29:27;9.50;;;7.50;;
4519;SDS011;2272;49.226;8.108;2023-06-01T21:31:54;10.87;;;7.07;;
4519;SDS011;2272;49.226;8.108;2023-06-01T21:34:22;10.90;;;6.53;;
4519;SDS011;2272;49.226;8.108;2023-06-01T21:36:50;25.83;;;8.00;;
4519;SDS011;2272;49.226;8.108;2023-06-01T21:39:18;10.50;;;6.80;;
4519;SDS011;2272;49.226;8.108;2023-06-01T21:42:01;11.53;;;6.40;;
4519;SDS011;2272;49.226;8.108;2023-06-01T21:44:51;17.17;;;8.10;;
4519;SDS011;2272;49.226;8.108;2023-06-01T21:47:27;10.97;;;6.20;;
4519;SDS011;2272;49.226;8.108;2023-06-01T21:49:57;9.50;;;6.70;;
4519;SDS011;2272;49.226;8.108;2023-06-01T21:52:24;12.53;;;8.10;;
4519;SDS011;2272;49.226;8.108;2023-06-01T21:54:52;11.03;;;7.03;;
4519;SDS011;2272;49.226;8.108;2023-06-01T21:57:32;14.37;;;6.97;;
4519;SDS011;2272;49.226;8.108;2023-06-01T22:00:00;11.23;;;6.90;;
4519;SDS011;2272;49.226;8.108;2023-06-01T22:02:38;10.60;;;6.60;;
4519;SDS011;2272;49.226;8.108;2023-06-01T22:05:13;15.50;;;7.23;;
4519;SDS011;2272;49.226;8.108;2023-06-01T22:07:40;10.97;;;6.37;;
4519;SDS011;2272;49.226;8.108;2023-06-01T22:10:08;10.43;;;6.30;;
4519;SDS011;2272;49.226;8.108;2023-06-01T22:12:35;9.10;;;7.07;;
4519;SDS011;2272;49.226;8.108;2023-06-01T22:15:03;8.63;;;6.70;;
4519;SDS011;2272;49.226;8.108;2023-06-01T22:17:32;10.20;;;6.63;;
4519;SDS011;2272;49.226;8.108;2023-06-01T22:20:03;9.23;;;7.13;;
4519;SDS011;2272;49.226;8.108;2023-06-01T22:22:51;24.23;;;6.83;;
4519;SDS011;2272;49.226;8.108;2023-06-01T22:25:20;10.00;;;6.60;;
4519;SDS011;2272;49.226;8.108;2023-06-01T22:27:47;14.93;;;7.10;;
4519;SDS011;2272;49.226;8.108;2023-06-01T22:30:15;8.60;;;6.53;;
4519;SDS011;2272;49.226;8.108;2023-06-01T22:32:42;11.00;;;6.63;;
4519;SDS011;2272;49.226;8.108;2023-06-01T22:35:11;9.40;;;6.67;;
4519;SDS011;2272;49.226;8.108;2023-06-01T22:37:38;17.40;;;6.30;;
4519;SDS011;2272;49.226;8.108;2023-06-01T22:40:10;8.50;;;6.47;;
4519;SDS011;2272;49.226;8.108;2023-06-01T22:42:37;10.90;;;6.30;;
4519;SDS011;2272;49.226;8.108;2023-06-01T22:45:07;13.73;;;6.57;;
4519;SDS011;2272;49.226;8.108;2023-06-01T22:47:40;11.50;;;6.20;;
4519;SDS011;2272;49.226;8.108;2023-06-01T22:50:10;15.50;;;6.30;;
4519;SDS011;2272;49.226;8.108;2023-06-01T23:31:28;7.10;;;6.40;;
4519;SDS011;2272;49.226;8.108;2023-06-01T23:33:58;13.10;;;6.77;;
4519;SDS011;2272;49.226;8.108;2023-06-01T23:36:25;12.07;;;6.50;;
4519;SDS011;2272;49.226;8.108;2023-06-01T23:38:53;14.63;;;8.00;;
4519;SDS011;2272;49.226;8.108;2023-06-01T23:41:20;11.60;;;6.93;;
4519;SDS011;2272;49.226;8.108;2023-06-01T23:43:50;12.90;;;7.67;;
4519;SDS011;2272;49.226;8.108;2023-06-01T23:46:17;13.53;;;6.23;;
4519;SDS011;2272;49.226;8.108;2023-06-01T23:48:45;8.67;;;6.53;;
4519;SDS011;2272;49.226;8.108;2023-06-01T23:51:19;15.63;;;7.27;;
4519;SDS011;2272;49.226;8.108;2023-06-01T23:53:49;13.23;;;6.20;;
4519;SDS011;2272;49.226;8.108;2023-06-01T23:56:17;22.07;;;7.83;;
4519;SDS011;2272;49.226;8.108;2023-06-01T23:58:53;11.47;;;7.47;;
